sensor_id;sensor_type;location;lat;lon;timestamp;pressure;altitude;pressure_sealevel;temperature;humidity
85094;BME280;75432;49.056;12.004;2024-03-23T00:54:36;95977.59;;;9.04;91.16
85094;BME280;75432;49.056;12.004;2024-03-23T00:57:02;95998.66;;;9.00;91.20
85094;BME280;75432;49.056;12.004;2024-03-23T00:59:28;95971.66;;;8.97;91.45
85094;BME280;75432;49.056;12.004;2024-03-23T01:01:57;95975.09;;;8.92;91.07
85094;BME280;75432;49.056;12.004;2024-03-23T01:04:22;95974.75;;;8.84;90.89
85094;BME280;75432;49.056;12.004;2024-03-23T01:06:48;95946.53;;;8.61;91.01
85094;BME280;75432;49.056;12.004;2024-03-23T01:09:13;95909.97;;;8.35;91.34
85094;BME280;75432;49.056;12.004;2024-03-23T01:11:39;95875.63;;;8.17;91.32
85094;BME280;75432;49.056;12.004;2024-03-23T01:14:05;95961.47;;;8.62;91.07
85094;BME280;75432;49.056;12.004;2024-03-23T01:16:34;95831.09;;;7.90;91.43
85094;BME280;75432;49.056;12.004;2024-03-23T01:18:59;95966.41;;;8.75;91.90
85094;BME280;75432;49.056;12.004;2024-03-23T01:21:25;95957.06;;;8.78;91.81
85094;BME280;75432;49.056;12.004;2024-03-23T01:23:50;95950.94;;;8.77;91.82
85094;BME280;75432;49.056;12.004;2024-03-23T01:26:16;95912.84;;;8.55;91.53
85094;BME280;75432;49.056;12.004;2024-03-23T01:28:42;95906.44;;;8.56;91.35
85094;BME280;75432;49.056;12.004;2024-03-23T01:31:07;95892.38;;;8.34;90.91
85094;BME280;75432;49.056;12.004;2024-03-23T01:33:33;95892.91;;;8.36;90.97
85094;BME280;75432;49.056;12.004;2024-03-23T01:35:58;95845.53;;;7.94;91.08
85094;BME280;75432;49.056;12.004;2024-03-23T01:38:24;95860.81;;;8.04;91.15
85094;BME280;75432;49.056;12.004;2024-03-23T01:40:49;95902.53;;;8.15;91.15
85094;BME280;75432;49.056;12.004;2024-03-23T01:43:21;95907.25;;;8.30;91.63
85094;BME280;75432;49.056;12.004;2024-03-23T01:45:47;95882.44;;;8.07;91.87
85094;BME280;75432;49.056;12.004;2024-03-23T01:48:12;95905.00;;;8.22;91.98
85094;BME280;75432;49.056;12.004;2024-03-23T01:50:38;95915.38;;;8.18;92.27
85094;BME280;75432;49.056;12.004;2024-03-23T01:53:04;95893.75;;;8.14;92.60
85094;BME280;75432;49.056;12.004;2024-03-23T01:55:34;95889.91;;;8.05;92.91
85094;BME280;75432;49.056;12.004;2024-03-23T01:58:04;95810.44;;;7.54;93.00
85094;BME280;75432;49.056;12.004;2024-03-23T02:00:30;95804.88;;;7.55;92.97
85094;BME280;75432;49.056;12.004;2024-03-23T02:02:55;95887.75;;;8.02;93.40
85094;BME280;75432;49.056;12.004;2024-03-23T02:05:21;95879.97;;;8.01;93.15
85094;BME280;75432;49.056;12.004;2024-03-23T02:07:47;95760.59;;;7.28;93.39
85094;BME280;75432;49.056;12.004;2024-03-23T02:10:13;95815.53;;;7.55;93.46
85094;BME280;75432;49.056;12.004;2024-03-23T02:12:39;95846.34;;;7.73;93.40
85094;BME280;75432;49.056;12.004;2024-03-23T02:15:04;95765.44;;;7.31;93.46
85094;BME280;75432;49.056;12.004;2024-03-23T02:17:33;95864.13;;;7.89;93.56
85094;BME280;75432;49.056;12.004;2024-03-23T02:19:58;95772.59;;;7.30;93.16
85094;BME280;75432;49.056;12.004;2024-03-23T02:22:24;95857.69;;;7.85;93.49
85094;BME280;75432;49.056;12.004;2024-03-23T02:24:49;95826.56;;;7.64;93.51
85094;BME280;75432;49.056;12.004;2024-03-23T02:27:15;95794.72;;;7.52;93.27
85094;BME280;75432;49.056;12.004;2024-03-23T02:29:41;95843.56;;;7.85;93.67
85094;BME280;75432;49.056;12.004;2024-03-23T02:32:06;95841.41;;;7.82;93.82
85094;BME280;75432;49.056;12.004;2024-03-23T02:34:35;95838.72;;;7.82;93.78
85094;BME280;75432;49.056;12.004;2024-03-23T02:37:00;95669.78;;;6.76;93.66
85094;BME280;75432;49.056;12.004;2024-03-23T02:39:26;95761.72;;;7.32;93.65
85094;BME280;75432;49.056;12.004;2024-03-23T02:41:51;95838.19;;;7.80;93.68
85094;BME280;75432;49.056;12.004;2024-03-23T02:44:17;95835.75;;;7.78;93.73
85094;BME280;75432;49.056;12.004;2024-03-23T02:46:42;95811.03;;;7.61;93.63
85094;BME280;75432;49.056;12.004;2024-03-23T02:49:08;95814.81;;;7.65;93.91
85094;BME280;75432;49.056;12.004;2024-03-23T02:51:34;95843.84;;;7.88;94.18
85094;BME280;75432;49.056;12.004;2024-03-23T02:53:59;95773.41;;;7.52;93.85
85094;BME280;75432;49.056;12.004;2024-03-23T02:56:25;95827.41;;;7.91;93.97
85094;BME280;75432;49.056;12.004;2024-03-23T02:58:51;95805.91;;;7.76;94.13
85094;BME280;75432;49.056;12.004;2024-03-23T03:01:16;95704.41;;;7.24;93.99
85094;BME280;75432;49.056;12.004;2024-03-23T03:03:42;95799.00;;;7.80;93.52
85094;BME280;75432;49.056;12.004;2024-03-23T03:06:07;95816.97;;;7.90;93.64
85094;BME280;75432;49.056;12.004;2024-03-23T03:08:33;95813.25;;;7.91;93.81
85094;BME280;75432;49.056;12.004;2024-03-23T03:10:59;95688.50;;;7.07;93.88
85094;BME280;75432;49.056;12.004;2024-03-23T03:13:24;95810.03;;;7.89;93.68
85094;BME280;75432;49.056;12.004;2024-03-23T03:15:50;95705.75;;;7.27;93.44
85094;BME280;75432;49.056;12.004;2024-03-23T03:18:15;95767.69;;;7.65;93.55
85094;BME280;75432;49.056;12.004;2024-03-23T03:20:41;95590.28;;;6.57;93.09
85094;BME280;75432;49.056;12.004;2024-03-23T03:23:07;95789.94;;;7.76;93.22
85094;BME280;75432;49.056;12.004;2024-03-23T03:25:33;95723.94;;;7.35;93.20
85094;BME280;75432;49.056;12.004;2024-03-23T03:27:59;95747.47;;;7.43;93.37
85094;BME280;75432;49.056;12.004;2024-03-23T03:30:25;95785.78;;;7.63;93.57
85094;BME280;75432;49.056;12.004;2024-03-23T03:32:53;95769.25;;;7.61;93.61
85094;BME280;75432;49.056;12.004;2024-03-23T03:35:19;95760.28;;;7.46;93.49
85094;BME280;75432;49.056;12.004;2024-03-23T03:37:44;95654.47;;;6.88;93.42
85094;BME280;75432;49.056;12.004;2024-03-23T03:40:11;95773.22;;;7.59;93.18
85094;BME280;75432;49.056;12.004;2024-03-23T03:42:36;95768.94;;;7.58;93.38
85094;BME280;75432;49.056;12.004;2024-03-23T03:45:03;95759.38;;;7.62;93.40
85094;BME280;75432;49.056;12.004;2024-03-23T03:47:30;95699.81;;;7.41;93.14
85094;BME280;75432;49.056;12.004;2024-03-23T03:49:55;95767.59;;;7.82;92.79
85094;BME280;75432;49.056;12.004;2024-03-23T03:52:21;95752.97;;;7.85;92.98
85094;BME280;75432;49.056;12.004;2024-03-23T03:54:47;95753.72;;;7.80;93.00
85094;BME280;75432;49.056;12.004;2024-03-23T03:57:12;95708.09;;;7.45;92.99
85094;BME280;75432;49.056;12.004;2024-03-23T03:59:38;95602.22;;;6.77;93.27
85094;BME280;75432;49.056;12.004;2024-03-23T04:02:04;95507.16;;;6.18;93.15
85094;BME280;75432;49.056;12.004;2024-03-23T04:04:29;95525.47;;;6.37;93.19
85094;BME280;75432;49.056;12.004;2024-03-23T04:07:02;95624.53;;;6.97;93.18
85094;BME280;75432;49.056;12.004;2024-03-23T04:09:27;95741.56;;;7.62;93.52
85094;BME280;75432;49.056;12.004;2024-03-23T04:11:53;95729.56;;;7.60;93.39
85094;BME280;75432;49.056;12.004;2024-03-23T04:14:19;95676.66;;;7.20;93.36
85094;BME280;75432;49.056;12.004;2024-03-23T04:16:44;95516.50;;;6.21;93.25
85094;BME280;75432;49.056;12.004;2024-03-23T04:19:10;95608.09;;;6.79;93.09
85094;BME280;75432;49.056;12.004;2024-03-23T04:21:37;95714.16;;;7.40;93.35
85094;BME280;75432;49.056;12.004;2024-03-23T04:24:03;95609.38;;;6.76;93.17
85094;BME280;75432;49.056;12.004;2024-03-23T04:26:29;95672.91;;;7.16;93.27
85094;BME280;75432;49.056;12.004;2024-03-23T04:28:55;95679.78;;;7.12;93.47
85094;BME280;75432;49.056;12.004;2024-03-23T04:31:20;95601.97;;;6.78;93.37
85094;BME280;75432;49.056;12.004;2024-03-23T04:33:47;95577.66;;;6.69;93.38
85094;BME280;75432;49.056;12.004;2024-03-23T04:36:12;95686.81;;;7.50;93.62
85094;BME280;75432;49.056;12.004;2024-03-23T04:38:38;95690.66;;;7.59;93.49
85094;BME280;75432;49.056;12.004;2024-03-23T04:41:04;95672.25;;;7.57;92.97
85094;BME280;75432;49.056;12.004;2024-03-23T04:43:29;95679.03;;;7.70;92.88
85094;BME280;75432;49.056;12.004;2024-03-23T04:45:55;95568.75;;;7.07;92.49
85094;BME280;75432;49.056;12.004;2024-03-23T04:48:22;95585.44;;;7.25;92.13
85094;BME280;75432;49.056;12.004;2024-03-23T04:50:54;95623.78;;;7.55;91.45
85094;BME280;75432;49.056;12.004;2024-03-23T04:53:20;95513.84;;;6.96;91.46
85094;BME280;75432;49.056;12.004;2024-03-23T04:55:46;95607.00;;;7.55;91.11
85094;BME280;75432;49.056;12.004;2024-03-23T04:58:12;95589.91;;;7.51;91.32
85094;BME280;75432;49.056;12.004;2024-03-23T05:00:37;95668.69;;;8.05;90.84
85094;BME280;75432;49.056;12.004;2024-03-23T05:03:03;95662.59;;;8.10;90.78
85094;BME280;75432;49.056;12.004;2024-03-23T05:05:29;95559.56;;;7.52;90.89
85094;BME280;75432;49.056;12.004;2024-03-23T05:07:55;95654.59;;;8.15;90.87
85094;BME280;75432;49.056;12.004;2024-03-23T05:10:20;95629.22;;;8.02;90.84
85094;BME280;75432;49.056;12.004;2024-03-23T05:12:46;95649.31;;;8.20;91.12
85094;BME280;75432;49.056;12.004;2024-03-23T05:15:11;95619.66;;;8.06;91.20
85094;BME280;75432;49.056;12.004;2024-03-23T05:17:37;95568.25;;;7.74;90.98
85094;BME280;75432;49.056;12.004;2024-03-23T05:20:04;95603.38;;;8.03;90.86
85094;BME280;75432;49.056;12.004;2024-03-23T05:22:29;95611.13;;;8.09;90.61
85094;BME280;75432;49.056;12.004;2024-03-23T05:24:56;95637.97;;;8.35;90.70
85094;BME280;75432;49.056;12.004;2024-03-23T05:27:21;95646.53;;;8.37;90.28
85094;BME280;75432;49.056;12.004;2024-03-23T05:29:47;95640.66;;;8.40;90.07
85094;BME280;75432;49.056;12.004;2024-03-23T05:32:12;95569.53;;;8.08;89.42
85094;BME280;75432;49.056;12.004;2024-03-23T05:34:38;95593.63;;;8.24;89.35
85094;BME280;75432;49.056;12.004;2024-03-23T05:37:04;95617.75;;;8.44;88.98
85094;BME280;75432;49.056;12.004;2024-03-23T05:39:29;95566.34;;;8.11;88.68
85094;BME280;75432;49.056;12.004;2024-03-23T05:41:55;95484.44;;;7.45;88.17
85094;BME280;75432;49.056;12.004;2024-03-23T05:44:20;95616.69;;;8.45;88.13
85094;BME280;75432;49.056;12.004;2024-03-23T05:46:46;95608.69;;;8.45;88.04
85094;BME280;75432;49.056;12.004;2024-03-23T05:49:15;95606.03;;;8.45;87.73
85094;BME280;75432;49.056;12.004;2024-03-23T05:51:40;95547.69;;;8.06;87.62
85094;BME280;75432;49.056;12.004;2024-03-23T05:54:06;95566.94;;;8.24;87.68
85094;BME280;75432;49.056;12.004;2024-03-23T05:56:32;95600.69;;;8.45;87.43
85094;BME280;75432;49.056;12.004;2024-03-23T05:58:57;95541.22;;;7.97;87.19
85094;BME280;75432;49.056;12.004;2024-03-23T06:01:23;95593.75;;;8.44;87.04
85094;BME280;75432;49.056;12.004;2024-03-23T06:03:48;95564.34;;;8.29;87.03
85094;BME280;75432;49.056;12.004;2024-03-23T06:06:14;95543.44;;;8.10;86.75
85094;BME280;75432;49.056;12.004;2024-03-23T06:08:40;95576.41;;;8.46;86.34
85094;BME280;75432;49.056;12.004;2024-03-23T06:11:06;95570.66;;;8.65;86.15
85094;BME280;75432;49.056;12.004;2024-03-23T06:13:32;95453.81;;;7.99;85.20
85094;BME280;75432;49.056;12.004;2024-03-23T06:15:59;95563.78;;;8.84;85.09
85094;BME280;75432;49.056;12.004;2024-03-23T06:18:25;95546.72;;;8.95;84.22
85094;BME280;75432;49.056;12.004;2024-03-23T06:20:51;95518.94;;;8.91;83.73
85094;BME280;75432;49.056;12.004;2024-03-23T06:23:17;95515.47;;;9.00;82.32
85094;BME280;75432;49.056;12.004;2024-03-23T06:25:45;95536.34;;;9.29;82.50
85094;BME280;75432;49.056;12.004;2024-03-23T06:28:11;95473.84;;;8.99;82.77
85094;BME280;75432;49.056;12.004;2024-03-23T06:30:36;95534.75;;;9.38;82.98
85094;BME280;75432;49.056;12.004;2024-03-23T06:33:02;95529.41;;;9.38;83.53
85094;BME280;75432;49.056;12.004;2024-03-23T06:35:28;95478.38;;;8.99;83.74
85094;BME280;75432;49.056;12.004;2024-03-23T06:37:53;95356.03;;;8.05;83.72
85094;BME280;75432;49.056;12.004;2024-03-23T06:40:19;95561.44;;;9.28;84.26
85094;BME280;75432;49.056;12.004;2024-03-23T06:42:44;95518.16;;;9.05;84.28
85094;BME280;75432;49.056;12.004;2024-03-23T06:45:10;95551.56;;;9.28;84.29
85094;BME280;75432;49.056;12.004;2024-03-23T06:47:35;95517.63;;;9.14;84.36
85094;BME280;75432;49.056;12.004;2024-03-23T06:50:02;95455.13;;;8.84;84.22
85094;BME280;75432;49.056;12.004;2024-03-23T06:52:28;95546.50;;;9.52;84.44
85094;BME280;75432;49.056;12.004;2024-03-23T06:54:54;95492.00;;;9.28;84.49
85094;BME280;75432;49.056;12.004;2024-03-23T06:57:20;95547.56;;;9.61;84.68
85094;BME280;75432;49.056;12.004;2024-03-23T06:59:45;95545.97;;;9.60;84.43
85094;BME280;75432;49.056;12.004;2024-03-23T07:02:11;95469.31;;;9.20;84.38
85094;BME280;75432;49.056;12.004;2024-03-23T07:04:37;95502.69;;;9.43;84.29
85094;BME280;75432;49.056;12.004;2024-03-23T07:07:04;95263.00;;;7.93;83.23
85094;BME280;75432;49.056;12.004;2024-03-23T07:09:30;95541.94;;;9.68;83.52
85094;BME280;75432;49.056;12.004;2024-03-23T07:11:56;95534.75;;;9.68;83.76
85094;BME280;75432;49.056;12.004;2024-03-23T07:14:23;95540.09;;;9.68;83.76
85094;BME280;75432;49.056;12.004;2024-03-23T07:16:49;95458.91;;;9.14;83.40
85094;BME280;75432;49.056;12.004;2024-03-23T07:19:16;95534.72;;;9.63;83.76
85094;BME280;75432;49.056;12.004;2024-03-23T07:21:43;95537.16;;;9.60;83.94
85094;BME280;75432;49.056;12.004;2024-03-23T07:24:08;95566.28;;;9.56;84.43
85094;BME280;75432;49.056;12.004;2024-03-23T07:26:34;95539.25;;;9.27;84.69
85094;BME280;75432;49.056;12.004;2024-03-23T07:29:00;95531.25;;;9.17;85.07
85094;BME280;75432;49.056;12.004;2024-03-23T07:31:25;95587.63;;;9.51;85.46
85094;BME280;75432;49.056;12.004;2024-03-23T07:33:51;95594.84;;;9.50;85.83
85094;BME280;75432;49.056;12.004;2024-03-23T07:36:16;95599.38;;;9.50;86.01
85094;BME280;75432;49.056;12.004;2024-03-23T07:38:43;95543.28;;;9.15;85.08
85094;BME280;75432;49.056;12.004;2024-03-23T07:41:15;95610.06;;;9.55;84.91
85094;BME280;75432;49.056;12.004;2024-03-23T07:43:43;95630.66;;;9.60;84.79
85094;BME280;75432;49.056;12.004;2024-03-23T07:46:09;95597.25;;;9.37;84.59
85094;BME280;75432;49.056;12.004;2024-03-23T07:48:34;95616.47;;;9.39;85.02
85094;BME280;75432;49.056;12.004;2024-03-23T07:51:05;95630.38;;;9.51;83.69
85094;BME280;75432;49.056;12.004;2024-03-23T07:53:32;95663.50;;;9.45;84.75
85094;BME280;75432;49.056;12.004;2024-03-23T07:56:00;95665.34;;;9.39;84.23
85094;BME280;75432;49.056;12.004;2024-03-23T07:58:26;95654.94;;;9.33;84.06
85094;BME280;75432;49.056;12.004;2024-03-23T08:00:56;95552.53;;;8.72;84.12
85094;BME280;75432;49.056;12.004;2024-03-23T08:03:22;95547.13;;;8.61;84.52
85094;BME280;75432;49.056;12.004;2024-03-23T08:05:48;95554.34;;;8.56;85.31
85094;BME280;75432;49.056;12.004;2024-03-23T08:08:14;95528.63;;;8.30;84.83
85094;BME280;75432;49.056;12.004;2024-03-23T08:10:52;95612.56;;;8.74;85.77
85094;BME280;75432;49.056;12.004;2024-03-23T08:13:18;95641.44;;;8.92;85.77
85094;BME280;75432;49.056;12.004;2024-03-23T08:15:44;95619.75;;;8.69;86.29
85094;BME280;75432;49.056;12.004;2024-03-23T08:18:13;95658.47;;;8.81;87.07
85094;BME280;75432;49.056;12.004;2024-03-23T08:20:41;95646.72;;;8.72;87.17
85094;BME280;75432;49.056;12.004;2024-03-23T08:23:06;95649.38;;;8.72;87.61
85094;BME280;75432;49.056;12.004;2024-03-23T08:25:32;95647.22;;;8.64;88.17
85094;BME280;75432;49.056;12.004;2024-03-23T08:27:58;95632.75;;;8.55;88.54
85094;BME280;75432;49.056;12.004;2024-03-23T08:30:24;95639.63;;;8.46;89.24
85094;BME280;75432;49.056;12.004;2024-03-23T08:32:49;95651.59;;;8.38;89.92
85094;BME280;75432;49.056;12.004;2024-03-23T08:35:15;95662.25;;;8.33;90.20
85094;BME280;75432;49.056;12.004;2024-03-23T08:37:41;95654.34;;;8.17;90.32
85094;BME280;75432;49.056;12.004;2024-03-23T08:40:07;95676.25;;;8.24;90.75
85094;BME280;75432;49.056;12.004;2024-03-23T08:42:34;95680.78;;;8.23;91.09
85094;BME280;75432;49.056;12.004;2024-03-23T08:45:00;95594.84;;;7.69;91.31
85094;BME280;75432;49.056;12.004;2024-03-23T08:47:25;95685.63;;;8.26;91.28
85094;BME280;75432;49.056;12.004;2024-03-23T08:49:51;95613.59;;;7.84;91.08
85094;BME280;75432;49.056;12.004;2024-03-23T08:52:17;95620.00;;;7.83;91.38
85094;BME280;75432;49.056;12.004;2024-03-23T08:54:42;95656.97;;;8.11;91.44
85094;BME280;75432;49.056;12.004;2024-03-23T08:57:08;95625.41;;;7.93;91.38
85094;BME280;75432;49.056;12.004;2024-03-23T08:59:34;95684.38;;;8.34;91.52
85094;BME280;75432;49.056;12.004;2024-03-23T09:02:00;95688.13;;;8.38;91.65
85094;BME280;75432;49.056;12.004;2024-03-23T09:04:26;95693.19;;;8.39;91.11
85094;BME280;75432;49.056;12.004;2024-03-23T09:06:51;95703.34;;;8.42;91.39
85094;BME280;75432;49.056;12.004;2024-03-23T09:09:17;95662.41;;;8.27;91.54
85094;BME280;75432;49.056;12.004;2024-03-23T09:11:43;95674.50;;;8.34;91.38
85094;BME280;75432;49.056;12.004;2024-03-23T09:14:08;95692.09;;;8.35;91.30
85094;BME280;75432;49.056;12.004;2024-03-23T09:16:34;95709.28;;;8.54;91.12
85094;BME280;75432;49.056;12.004;2024-03-23T09:19:00;95663.97;;;8.18;90.72
85094;BME280;75432;49.056;12.004;2024-03-23T09:21:26;95730.69;;;8.59;90.95
85094;BME280;75432;49.056;12.004;2024-03-23T09:23:51;95676.91;;;8.36;90.73
85094;BME280;75432;49.056;12.004;2024-03-23T09:26:17;95738.50;;;8.71;90.43
85094;BME280;75432;49.056;12.004;2024-03-23T09:28:42;95736.38;;;8.78;89.75
85094;BME280;75432;49.056;12.004;2024-03-23T09:31:09;95733.25;;;8.86;90.33
85094;BME280;75432;49.056;12.004;2024-03-23T09:33:36;95715.41;;;8.97;89.74
85094;BME280;75432;49.056;12.004;2024-03-23T09:36:06;95711.19;;;9.06;89.39
85094;BME280;75432;49.056;12.004;2024-03-23T09:38:32;95710.69;;;9.14;89.18
85094;BME280;75432;49.056;12.004;2024-03-23T09:40:57;95721.16;;;9.36;88.85
85094;BME280;75432;49.056;12.004;2024-03-23T09:43:23;95724.66;;;9.46;87.92
85094;BME280;75432;49.056;12.004;2024-03-23T09:45:49;95739.09;;;9.50;87.75
85094;BME280;75432;49.056;12.004;2024-03-23T09:48:15;95640.97;;;9.16;86.44
85094;BME280;75432;49.056;12.004;2024-03-23T09:50:42;95686.84;;;10.00;85.73
85094;BME280;75432;49.056;12.004;2024-03-23T09:53:10;95724.81;;;10.58;82.02
85094;BME280;75432;49.056;12.004;2024-03-23T09:55:37;95733.38;;;10.49;79.48
85094;BME280;75432;49.056;12.004;2024-03-23T09:58:04;95745.44;;;10.37;82.73
85094;BME280;75432;49.056;12.004;2024-03-23T10:00:34;95767.06;;;10.20;82.88
85094;BME280;75432;49.056;12.004;2024-03-23T10:03:00;95775.34;;;10.03;84.24
85094;BME280;75432;49.056;12.004;2024-03-23T10:05:31;95661.03;;;9.18;84.17
85094;BME280;75432;49.056;12.004;2024-03-23T10:08:26;95793.16;;;9.78;82.93
85094;BME280;75432;49.056;12.004;2024-03-23T10:10:54;95759.75;;;9.65;84.56
85094;BME280;75432;49.056;12.004;2024-03-23T10:13:28;95667.81;;;9.61;83.52
85094;BME280;75432;49.056;12.004;2024-03-23T10:15:58;95804.84;;;10.69;82.26
85094;BME280;75432;49.056;12.004;2024-03-23T10:18:24;95817.66;;;10.52;81.50
85094;BME280;75432;49.056;12.004;2024-03-23T10:21:10;95840.13;;;10.31;78.39
85094;BME280;75432;49.056;12.004;2024-03-23T10:23:38;95839.59;;;10.19;81.06
85094;BME280;75432;49.056;12.004;2024-03-23T10:26:21;95825.88;;;10.00;76.13
85094;BME280;75432;49.056;12.004;2024-03-23T10:29:00;95758.06;;;9.44;76.17
85094;BME280;75432;49.056;12.004;2024-03-23T10:31:30;95847.81;;;10.07;78.18
85094;BME280;75432;49.056;12.004;2024-03-23T10:33:56;95877.84;;;10.39;78.39
85094;BME280;75432;49.056;12.004;2024-03-23T10:36:23;95886.72;;;10.55;78.12
85094;BME280;75432;49.056;12.004;2024-03-23T10:38:51;95881.41;;;10.65;77.36
85094;BME280;75432;49.056;12.004;2024-03-23T10:41:18;95873.88;;;10.62;75.49
85094;BME280;75432;49.056;12.004;2024-03-23T10:43:48;95862.38;;;10.62;73.53
85094;BME280;75432;49.056;12.004;2024-03-23T10:46:14;95817.09;;;10.25;75.32
85094;BME280;75432;49.056;12.004;2024-03-23T10:48:40;95873.88;;;10.57;76.18
85094;BME280;75432;49.056;12.004;2024-03-23T10:51:10;95798.31;;;9.99;72.63
85094;BME280;75432;49.056;12.004;2024-03-23T10:56:51;95850.00;;;10.15;75.33
85094;BME280;75432;49.056;12.004;2024-03-23T10:59:19;95897.91;;;10.32;73.90
85094;BME280;75432;49.056;12.004;2024-03-23T11:01:58;95826.03;;;9.73;72.43
85094;BME280;75432;49.056;12.004;2024-03-23T11:04:35;95907.94;;;10.04;71.79
85094;BME280;75432;49.056;12.004;2024-03-23T11:07:02;95884.31;;;9.76;76.08
85094;BME280;75432;49.056;12.004;2024-03-23T11:14:48;95888.59;;;9.77;74.07
85094;BME280;75432;49.056;12.004;2024-03-23T11:17:21;95683.63;;;8.43;71.83
85094;BME280;75432;49.056;12.004;2024-03-23T11:22:57;95862.28;;;9.49;74.19
85094;BME280;75432;49.056;12.004;2024-03-23T11:25:23;95838.94;;;8.92;75.00
85094;BME280;75432;49.056;12.004;2024-03-23T11:27:51;95898.56;;;9.40;74.95
85094;BME280;75432;49.056;12.004;2024-03-23T11:30:22;95819.69;;;8.85;75.14
85094;BME280;75432;49.056;12.004;2024-03-23T11:32:49;95843.13;;;9.15;75.88
85094;BME280;75432;49.056;12.004;2024-03-23T11:38:08;95875.06;;;9.42;72.05
85094;BME280;75432;49.056;12.004;2024-03-23T11:40:39;95911.59;;;9.78;74.30
85094;BME280;75432;49.056;12.004;2024-03-23T11:43:07;95736.97;;;8.85;74.72
85094;BME280;75432;49.056;12.004;2024-03-23T11:45:45;95687.19;;;8.59;69.44
85094;BME280;75432;49.056;12.004;2024-03-23T11:48:21;95833.19;;;9.52;68.96
85094;BME280;75432;49.056;12.004;2024-03-23T11:50:53;95843.66;;;9.64;71.58
85094;BME280;75432;49.056;12.004;2024-03-23T11:53:21;95893.78;;;9.99;65.47
85094;BME280;75432;49.056;12.004;2024-03-23T11:55:52;95873.56;;;9.66;71.37
85094;BME280;75432;49.056;12.004;2024-03-23T11:58:19;95733.34;;;8.59;71.48
85094;BME280;75432;49.056;12.004;2024-03-23T12:00:50;96000.94;;;9.92;70.34
85094;BME280;75432;49.056;12.004;2024-03-23T12:03:17;95751.94;;;8.18;71.97
85094;BME280;75432;49.056;12.004;2024-03-23T12:05:48;95942.81;;;9.31;70.84
85094;BME280;75432;49.056;12.004;2024-03-23T12:08:28;95906.19;;;8.89;68.63
85094;BME280;75432;49.056;12.004;2024-03-23T12:11:06;95922.81;;;8.96;68.12
85094;BME280;75432;49.056;12.004;2024-03-23T12:13:31;95984.09;;;9.50;71.37
85094;BME280;75432;49.056;12.004;2024-03-23T12:16:09;96018.59;;;9.51;67.61
85094;BME280;75432;49.056;12.004;2024-03-23T12:18:35;95714.56;;;7.81;70.98
85094;BME280;75432;49.056;12.004;2024-03-23T12:21:01;95823.19;;;8.54;71.47
85094;BME280;75432;49.056;12.004;2024-03-23T12:23:27;95950.34;;;9.39;70.11
85094;BME280;75432;49.056;12.004;2024-03-23T12:25:52;95710.16;;;7.96;70.54
85094;BME280;75432;49.056;12.004;2024-03-23T12:28:18;95877.25;;;9.08;70.26
85094;BME280;75432;49.056;12.004;2024-03-23T12:30:43;95689.81;;;7.85;70.64
85094;BME280;75432;49.056;12.004;2024-03-23T12:33:09;95896.34;;;8.90;69.18
85094;BME280;75432;49.056;12.004;2024-03-23T12:35:34;95874.31;;;8.73;69.62
85094;BME280;75432;49.056;12.004;2024-03-23T12:38:00;95928.44;;;9.00;69.77
85094;BME280;75432;49.056;12.004;2024-03-23T12:40:26;95673.94;;;7.37;68.62
85094;BME280;75432;49.056;12.004;2024-03-23T12:42:53;95658.03;;;7.20;69.02
85094;BME280;75432;49.056;12.004;2024-03-23T12:45:19;95960.06;;;9.13;69.69
85094;BME280;75432;49.056;12.004;2024-03-23T12:47:44;95928.00;;;8.76;70.12
85094;BME280;75432;49.056;12.004;2024-03-23T12:50:11;95642.38;;;7.24;69.74
85094;BME280;75432;49.056;12.004;2024-03-23T12:52:37;95653.31;;;7.27;69.88
85094;BME280;75432;49.056;12.004;2024-03-23T12:55:03;95914.16;;;8.84;69.29
85094;BME280;75432;49.056;12.004;2024-03-23T12:57:31;95726.78;;;7.77;69.18
85094;BME280;75432;49.056;12.004;2024-03-23T13:00:19;95960.97;;;9.29;66.15
85094;BME280;75432;49.056;12.004;2024-03-23T13:02:45;95673.50;;;7.50;68.92
85094;BME280;75432;49.056;12.004;2024-03-23T13:09:24;95834.31;;;8.78;68.57
85094;BME280;75432;49.056;12.004;2024-03-23T13:11:50;95928.69;;;9.35;68.02
85094;BME280;75432;49.056;12.004;2024-03-23T13:14:15;95936.50;;;9.42;68.52
85094;BME280;75432;49.056;12.004;2024-03-23T13:16:42;95897.84;;;9.13;69.15
85094;BME280;75432;49.056;12.004;2024-03-23T13:19:07;95956.31;;;9.51;69.67
85094;BME280;75432;49.056;12.004;2024-03-23T13:21:33;95738.91;;;8.21;69.80
85094;BME280;75432;49.056;12.004;2024-03-23T13:23:58;95955.78;;;9.49;69.89
85094;BME280;75432;49.056;12.004;2024-03-23T13:26:24;95866.16;;;8.89;68.87
85094;BME280;75432;49.056;12.004;2024-03-23T13:28:49;95724.25;;;7.92;68.56
85094;BME280;75432;49.056;12.004;2024-03-23T13:31:15;95579.50;;;6.91;68.32
85094;BME280;75432;49.056;12.004;2024-03-23T13:33:41;95764.56;;;8.00;67.38
85094;BME280;75432;49.056;12.004;2024-03-23T13:36:09;95997.44;;;9.13;67.26
85094;BME280;75432;49.056;12.004;2024-03-23T13:38:35;95868.31;;;8.29;66.79
85094;BME280;75432;49.056;12.004;2024-03-23T13:41:01;95835.56;;;8.11;67.51
85094;BME280;75432;49.056;12.004;2024-03-23T13:43:29;95729.41;;;7.45;67.73
85094;BME280;75432;49.056;12.004;2024-03-23T13:45:56;95864.81;;;8.28;67.78
85094;BME280;75432;49.056;12.004;2024-03-23T13:48:24;95938.84;;;8.70;67.17
85094;BME280;75432;49.056;12.004;2024-03-23T13:51:03;95962.19;;;8.84;65.80
85094;BME280;75432;49.056;12.004;2024-03-23T13:53:29;95971.28;;;8.83;66.94
85094;BME280;75432;49.056;12.004;2024-03-23T13:55:55;95751.25;;;7.47;66.81
85094;BME280;75432;49.056;12.004;2024-03-23T13:58:21;96005.81;;;8.68;66.86
85094;BME280;75432;49.056;12.004;2024-03-23T14:00:47;95766.88;;;7.65;67.10
85094;BME280;75432;49.056;12.004;2024-03-23T14:03:13;95963.34;;;8.93;66.80
85094;BME280;75432;49.056;12.004;2024-03-23T14:05:40;95678.78;;;7.18;66.28
85094;BME280;75432;49.056;12.004;2024-03-23T14:08:10;95903.88;;;8.66;65.63
85094;BME280;75432;49.056;12.004;2024-03-23T14:10:39;95771.44;;;7.91;65.65